sensor_id;sensor_type;location;lat;lon;timestamp;pressure;altitude;pressure_sealevel;temperature;humidity
3250;BME280;1637;42.020;23.992;2023-05-02T00:00:56;93241.66;;;8.81;100.00
3250;BME280;1637;42.020;23.992;2023-05-02T00:03:24;93235.53;;;8.74;100.00
3250;BME280;1637;42.020;23.992;2023-05-02T00:05:51;93238.22;;;8.81;100.00
3250;BME280;1637;42.020;23.992;2023-05-02T00:08:18;93242.06;;;8.83;100.00
3250;BME280;1637;42.020;23.992;2023-05-02T00:10:45;93236.72;;;8.87;100.00
3250;BME280;1637;42.020;23.992;2023-05-02T00:13:13;93239.41;;;8.90;100.00
3250;BME280;1637;42.020;23.992;2023-05-02T00:15:40;93237.09;;;8.85;100.00
3250;BME280;1637;42.020;23.992;2023-05-02T00:18:07;93240.91;;;8.84;100.00
3250;BME280;1637;42.020;23.992;2023-05-02T00:20:34;93254.94;;;8.60;100.00
3250;BME280;1637;42.020;23.992;2023-05-02T00:23:01;93243.91;;;8.65;100.00
3250;BME280;1637;42.020;23.992;2023-05-02T00:25:28;93243.06;;;8.40;100.00
3250;BME280;1637;42.020;23.992;2023-05-02T00:27:54;93232.81;;;8.49;100.00
3250;BME280;1637;42.020;23.992;2023-05-02T00:30:23;93244.03;;;8.07;100.00
3250;BME280;1637;42.020;23.992;2023-05-02T00:32:49;93243.00;;;8.33;100.00
3250;BME280;1637;42.020;23.992;2023-05-02T00:35:18;93246.00;;;8.24;100.00
3250;BME280;1637;42.020;23.992;2023-05-02T00:37:45;93243.66;;;8.08;100.00
3250;BME280;1637;42.020;23.992;2023-05-02T00:40:12;93248.84;;;7.83;100.00
3250;BME280;1637;42.020;23.992;2023-05-02T00:42:40;93243.19;;;7.96;100.00
3250;BME280;1637;42.020;23.992;2023-05-02T00:45:07;93238.66;;;8.03;100.00
3250;BME280;1637;42.020;23.992;2023-05-02T00:47:35;93254.78;;;8.24;100.00
3250;BME280;1637;42.020;23.992;2023-05-02T00:50:03;93257.00;;;8.08;100.00
3250;BME280;1637;42.020;23.992;2023-05-02T00:52:30;93250.34;;;7.81;100.00
3250;BME280;1637;42.020;23.992;2023-05-02T00:54:57;93250.66;;;7.72;100.00
3250;BME280;1637;42.020;23.992;2023-05-02T00:57:24;93256.34;;;7.64;100.00
3250;BME280;1637;42.020;23.992;2023-05-02T00:59:50;93248.78;;;7.21;100.00
3250;BME280;1637;42.020;23.992;2023-05-02T01:02:29;93249.53;;;7.22;100.00
3250;BME280;1637;42.020;23.992;2023-05-02T01:05:04;93249.63;;;7.33;100.00
3250;BME280;1637;42.020;23.992;2023-05-02T01:07:46;93251.75;;;7.61;100.00
3250;BME280;1637;42.020;23.992;2023-05-02T01:10:22;93251.72;;;7.57;100.00
3250;BME280;1637;42.020;23.992;2023-05-02T01:12:59;93251.03;;;7.71;100.00
3250;BME280;1637;42.020;23.992;2023-05-02T01:15:29;93244.28;;;7.33;100.00
3250;BME280;1637;42.020;23.992;2023-05-02T01:17:59;93248.13;;;7.35;100.00
3250;BME280;1637;42.020;23.992;2023-05-02T01:20:29;93250.13;;;7.01;100.00
3250;BME280;1637;42.020;23.992;2023-05-02T01:23:02;93249.03;;;7.09;100.00
3250;BME280;1637;42.020;23.992;2023-05-02T01:25:39;93246.31;;;6.65;100.00
3250;BME280;1637;42.020;23.992;2023-05-02T01:28:18;93236.03;;;7.01;100.00
3250;BME280;1637;42.020;23.992;2023-05-02T01:30:49;93241.25;;;6.90;100.00
3250;BME280;1637;42.020;23.992;2023-05-02T01:33:20;93241.34;;;7.01;100.00
3250;BME280;1637;42.020;23.992;2023-05-02T01:35:49;93242.19;;;6.71;100.00
3250;BME280;1637;42.020;23.992;2023-05-02T01:38:18;93247.38;;;6.94;100.00
3250;BME280;1637;42.020;23.992;2023-05-02T01:40:46;93247.13;;;7.10;100.00
3250;BME280;1637;42.020;23.992;2023-05-02T01:43:16;93245.34;;;6.80;100.00
3250;BME280;1637;42.020;23.992;2023-05-02T01:45:46;93253.38;;;6.87;100.00
3250;BME280;1637;42.020;23.992;2023-05-02T01:48:16;93248.25;;;6.68;100.00
3250;BME280;1637;42.020;23.992;2023-05-02T01:50:45;93257.94;;;6.83;100.00
3250;BME280;1637;42.020;23.992;2023-05-02T01:53:13;93256.41;;;6.82;100.00
3250;BME280;1637;42.020;23.992;2023-05-02T01:55:42;93251.44;;;6.81;100.00
3250;BME280;1637;42.020;23.992;2023-05-02T01:58:10;93253.06;;;6.93;100.00
3250;BME280;1637;42.020;23.992;2023-05-02T02:00:38;93249.41;;;7.08;100.00
3250;BME280;1637;42.020;23.992;2023-05-02T02:03:06;93253.44;;;6.91;100.00
3250;BME280;1637;42.020;23.992;2023-05-02T02:05:36;93254.88;;;6.48;100.00
3250;BME280;1637;42.020;23.992;2023-05-02T02:08:05;93256.00;;;6.47;100.00
3250;BME280;1637;42.020;23.992;2023-05-02T02:10:39;93250.91;;;6.68;100.00
3250;BME280;1637;42.020;23.992;2023-05-02T02:13:15;93247.66;;;6.48;100.00
3250;BME280;1637;42.020;23.992;2023-05-02T02:15:46;93251.63;;;6.65;100.00
3250;BME280;1637;42.020;23.992;2023-05-02T02:18:17;93247.94;;;6.73;100.00
3250;BME280;1637;42.020;23.992;2023-05-02T02:20:49;93245.84;;;6.23;100.00
3250;BME280;1637;42.020;23.992;2023-05-02T02:23:18;93250.38;;;6.18;100.00
3250;BME280;1637;42.020;23.992;2023-05-02T02:25:48;93242.69;;;6.47;100.00
3250;BME280;1637;42.020;23.992;2023-05-02T02:28:16;93250.78;;;6.24;100.00
3250;BME280;1637;42.020;23.992;2023-05-02T02:30:42;93250.78;;;6.54;100.00
3250;BME280;1637;42.020;23.992;2023-05-02T02:33:09;93257.63;;;6.55;100.00
3250;BME280;1637;42.020;23.992;2023-05-02T02:35:39;93260.66;;;6.20;100.00
3250;BME280;1637;42.020;23.992;2023-05-02T02:38:13;93266.38;;;6.26;100.00
3250;BME280;1637;42.020;23.992;2023-05-02T02:40:50;93250.25;;;6.41;100.00
3250;BME280;1637;42.020;23.992;2023-05-02T02:43:24;93257.53;;;6.14;100.00
3250;BME280;1637;42.020;23.992;2023-05-02T02:45:59;93265.03;;;6.39;100.00
3250;BME280;1637;42.020;23.992;2023-05-02T02:48:33;93267.94;;;6.27;100.00
3250;BME280;1637;42.020;23.992;2023-05-02T02:51:07;93256.41;;;6.15;100.00
3250;BME280;1637;42.020;23.992;2023-05-02T02:53:55;93252.28;;;5.92;100.00
3250;BME280;1637;42.020;23.992;2023-05-02T02:56:27;93250.94;;;6.05;100.00
3250;BME280;1637;42.020;23.992;2023-05-02T02:58:56;93247.75;;;5.92;100.00
3250;BME280;1637;42.020;23.992;2023-05-02T03:01:26;93257.00;;;6.02;100.00
3250;BME280;1637;42.020;23.992;2023-05-02T03:03:57;93262.31;;;6.02;100.00
3250;BME280;1637;42.020;23.992;2023-05-02T03:06:24;93263.97;;;6.13;100.00
3250;BME280;1637;42.020;23.992;2023-05-02T03:08:53;93266.03;;;5.97;100.00
3250;BME280;1637;42.020;23.992;2023-05-02T03:11:19;93272.53;;;6.00;100.00
3250;BME280;1637;42.020;23.992;2023-05-02T03:13:46;93272.69;;;5.87;100.00
3250;BME280;1637;42.020;23.992;2023-05-02T03:16:32;93261.34;;;5.64;100.00
3250;BME280;1637;42.020;23.992;2023-05-02T03:18:59;93270.91;;;6.22;100.00
3250;BME280;1637;42.020;23.992;2023-05-02T03:21:27;93265.66;;;6.29;100.00
3250;BME280;1637;42.020;23.992;2023-05-02T03:23:57;93270.28;;;6.02;100.00
3250;BME280;1637;42.020;23.992;2023-05-02T03:26:24;93260.81;;;6.04;100.00
3250;BME280;1637;42.020;23.992;2023-05-02T03:28:51;93268.44;;;5.79;100.00
3250;BME280;1637;42.020;23.992;2023-05-02T03:31:18;93268.03;;;5.77;100.00
3250;BME280;1637;42.020;23.992;2023-05-02T03:33:45;93283.28;;;5.84;100.00
3250;BME280;1637;42.020;23.992;2023-05-02T03:36:12;93262.72;;;5.28;100.00
3250;BME280;1637;42.020;23.992;2023-05-02T03:38:39;93299.19;;;5.31;100.00
3250;BME280;1637;42.020;23.992;2023-05-02T03:41:07;93284.09;;;5.35;100.00
3250;BME280;1637;42.020;23.992;2023-05-02T03:43:34;93285.06;;;5.50;100.00
3250;BME280;1637;42.020;23.992;2023-05-02T03:46:06;93291.63;;;5.56;100.00
3250;BME280;1637;42.020;23.992;2023-05-02T03:48:34;93295.75;;;5.53;100.00
3250;BME280;1637;42.020;23.992;2023-05-02T03:51:01;93298.72;;;5.75;100.00
3250;BME280;1637;42.020;23.992;2023-05-02T03:53:28;93300.78;;;5.59;100.00
3250;BME280;1637;42.020;23.992;2023-05-02T03:55:56;93301.56;;;5.63;100.00
3250;BME280;1637;42.020;23.992;2023-05-02T03:58:24;93302.31;;;5.60;100.00
3250;BME280;1637;42.020;23.992;2023-05-02T04:00:51;93304.47;;;5.77;100.00
3250;BME280;1637;42.020;23.992;2023-05-02T04:03:18;93299.09;;;5.73;100.00
3250;BME280;1637;42.020;23.992;2023-05-02T04:05:45;93298.53;;;5.87;100.00
3250;BME280;1637;42.020;23.992;2023-05-02T04:08:13;93303.88;;;6.43;100.00
3250;BME280;1637;42.020;23.992;2023-05-02T04:10:40;93304.06;;;6.95;100.00
3250;BME280;1637;42.020;23.992;2023-05-02T04:13:07;93311.97;;;6.87;100.00
3250;BME280;1637;42.020;23.992;2023-05-02T04:15:35;93309.72;;;6.89;100.00
3250;BME280;1637;42.020;23.992;2023-05-02T04:18:02;93303.66;;;6.93;100.00
3250;BME280;1637;42.020;23.992;2023-05-02T04:20:29;93299.78;;;6.86;100.00
3250;BME280;1637;42.020;23.992;2023-05-02T04:22:55;93305.03;;;7.16;100.00
3250;BME280;1637;42.020;23.992;2023-05-02T04:25:22;93304.06;;;7.35;100.00
3250;BME280;1637;42.020;23.992;2023-05-02T04:27:49;93309.72;;;7.30;100.00
3250;BME280;1637;42.020;23.992;2023-05-02T04:30:16;93315.56;;;7.43;100.00
3250;BME280;1637;42.020;23.992;2023-05-02T04:32:44;93316.16;;;7.70;100.00
3250;BME280;1637;42.020;23.992;2023-05-02T04:35:11;93308.22;;;7.33;100.00
3250;BME280;1637;42.020;23.992;2023-05-02T04:37:39;93308.19;;;7.26;100.00
3250;BME280;1637;42.020;23.992;2023-05-02T04:40:07;93312.00;;;6.91;100.00
3250;BME280;1637;42.020;23.992;2023-05-02T04:42:34;93286.19;;;6.58;100.00
3250;BME280;1637;42.020;23.992;2023-05-02T04:45:01;93316.25;;;6.62;100.00
3250;BME280;1637;42.020;23.992;2023-05-02T04:47:27;93307.25;;;6.74;100.00
3250;BME280;1637;42.020;23.992;2023-05-02T04:49:55;93304.78;;;6.92;100.00
3250;BME280;1637;42.020;23.992;2023-05-02T04:52:22;93304.88;;;7.39;100.00
3250;BME280;1637;42.020;23.992;2023-05-02T04:54:49;93312.88;;;7.87;100.00
3250;BME280;1637;42.020;23.992;2023-05-02T04:57:16;93316.66;;;7.82;100.00
3250;BME280;1637;42.020;23.992;2023-05-02T04:59:42;93319.09;;;8.05;100.00
3250;BME280;1637;42.020;23.992;2023-05-02T05:02:09;93319.47;;;8.73;100.00
3250;BME280;1637;42.020;23.992;2023-05-02T05:04:37;93323.50;;;10.14;100.00
3250;BME280;1637;42.020;23.992;2023-05-02T05:07:05;93328.84;;;10.31;95.67
3250;BME280;1637;42.020;23.992;2023-05-02T05:09:32;93321.91;;;10.52;95.79
3250;BME280;1637;42.020;23.992;2023-05-02T05:11:59;93326.31;;;11.05;90.98
3250;BME280;1637;42.020;23.992;2023-05-02T05:14:26;93323.25;;;11.02;90.13
3250;BME280;1637;42.020;23.992;2023-05-02T05:16:53;93325.75;;;10.54;93.28
3250;BME280;1637;42.020;23.992;2023-05-02T05:19:19;93331.91;;;9.80;99.21
3250;BME280;1637;42.020;23.992;2023-05-02T05:21:46;93322.00;;;9.95;100.00
3250;BME280;1637;42.020;23.992;2023-05-02T05:24:14;93323.50;;;10.21;100.00
3250;BME280;1637;42.020;23.992;2023-05-02T05:26:41;93326.13;;;10.46;99.92
3250;BME280;1637;42.020;23.992;2023-05-02T05:29:08;93329.22;;;10.37;100.00
3250;BME280;1637;42.020;23.992;2023-05-02T05:31:35;93323.13;;;10.22;100.00
3250;BME280;1637;42.020;23.992;2023-05-02T05:34:02;93328.09;;;10.35;100.00
3250;BME280;1637;42.020;23.992;2023-05-02T05:36:29;93329.63;;;10.25;100.00
3250;BME280;1637;42.020;23.992;2023-05-02T05:38:56;93330.28;;;10.61;100.00
3250;BME280;1637;42.020;23.992;2023-05-02T05:41:24;93331.44;;;11.47;92.76
3250;BME280;1637;42.020;23.992;2023-05-02T05:43:52;93342.63;;;11.97;90.31
3250;BME280;1637;42.020;23.992;2023-05-02T05:46:18;93349.78;;;12.93;83.04
3250;BME280;1637;42.020;23.992;2023-05-02T05:48:45;93341.88;;;13.44;80.24
3250;BME280;1637;42.020;23.992;2023-05-02T05:51:12;93335.94;;;13.29;81.29
3250;BME280;1637;42.020;23.992;2023-05-02T05:53:39;93345.78;;;13.39;81.23
3250;BME280;1637;42.020;23.992;2023-05-02T05:56:09;93345.28;;;14.01;77.85
3250;BME280;1637;42.020;23.992;2023-05-02T05:58:37;93339.38;;;14.10;77.48
3250;BME280;1637;42.020;23.992;2023-05-02T06:01:05;93336.09;;;13.99;79.86
3250;BME280;1637;42.020;23.992;2023-05-02T06:03:31;93348.47;;;15.45;72.27
3250;BME280;1637;42.020;23.992;2023-05-02T06:05:58;93343.44;;;14.45;74.25
3250;BME280;1637;42.020;23.992;2023-05-02T06:08:25;93348.25;;;14.77;75.13
3250;BME280;1637;42.020;23.992;2023-05-02T06:10:52;93350.13;;;15.95;69.93
3250;BME280;1637;42.020;23.992;2023-05-02T06:13:19;93333.97;;;16.24;68.67
3250;BME280;1637;42.020;23.992;2023-05-02T06:15:47;93348.19;;;15.96;69.57
3250;BME280;1637;42.020;23.992;2023-05-02T06:18:13;93344.13;;;16.04;68.89
3250;BME280;1637;42.020;23.992;2023-05-02T06:20:40;93337.34;;;16.61;67.32
3250;BME280;1637;42.020;23.992;2023-05-02T06:23:07;93340.03;;;15.43;73.48
3250;BME280;1637;42.020;23.992;2023-05-02T06:25:36;93335.31;;;16.48;69.25
3250;BME280;1637;42.020;23.992;2023-05-02T06:28:03;93342.38;;;17.20;65.12
3250;BME280;1637;42.020;23.992;2023-05-02T06:30:31;93334.25;;;17.74;63.80
3250;BME280;1637;42.020;23.992;2023-05-02T06:32:59;93329.50;;;17.78;63.29
3250;BME280;1637;42.020;23.992;2023-05-02T06:35:26;93334.16;;;17.24;64.84
3250;BME280;1637;42.020;23.992;2023-05-02T06:37:52;93325.25;;;16.81;66.22
3250;BME280;1637;42.020;23.992;2023-05-02T06:40:19;93326.69;;;17.82;64.32
3250;BME280;1637;42.020;23.992;2023-05-02T06:42:46;93328.47;;;17.60;64.58
3250;BME280;1637;42.020;23.992;2023-05-02T06:45:13;93328.72;;;17.65;64.50
3250;BME280;1637;42.020;23.992;2023-05-02T06:47:40;93323.94;;;16.08;67.24
3250;BME280;1637;42.020;23.992;2023-05-02T06:50:09;93315.97;;;15.33;77.09
3250;BME280;1637;42.020;23.992;2023-05-02T06:52:36;93321.84;;;17.48;66.24
3250;BME280;1637;42.020;23.992;2023-05-02T06:55:04;93317.50;;;17.38;66.32
3250;BME280;1637;42.020;23.992;2023-05-02T06:57:31;93329.25;;;18.83;60.54
3250;BME280;1637;42.020;23.992;2023-05-02T06:59:58;93325.22;;;18.88;60.35
3250;BME280;1637;42.020;23.992;2023-05-02T07:02:24;93332.38;;;19.91;56.55
3250;BME280;1637;42.020;23.992;2023-05-02T07:04:51;93319.53;;;19.17;57.04
3250;BME280;1637;42.020;23.992;2023-05-02T07:07:19;93329.53;;;20.04;54.56
3250;BME280;1637;42.020;23.992;2023-05-02T07:09:46;93320.38;;;19.79;54.83
3250;BME280;1637;42.020;23.992;2023-05-02T07:12:13;93317.50;;;19.74;57.47
3250;BME280;1637;42.020;23.992;2023-05-02T07:14:40;93318.97;;;20.46;54.19
3250;BME280;1637;42.020;23.992;2023-05-02T07:17:07;93323.69;;;20.54;55.32
3250;BME280;1637;42.020;23.992;2023-05-02T07:19:34;93322.81;;;21.31;52.65
3250;BME280;1637;42.020;23.992;2023-05-02T07:22:00;93317.66;;;21.05;51.90
3250;BME280;1637;42.020;23.992;2023-05-02T07:24:29;93310.69;;;20.86;52.47
3250;BME280;1637;42.020;23.992;2023-05-02T07:26:55;93311.91;;;21.12;53.95
3250;BME280;1637;42.020;23.992;2023-05-02T07:29:22;93305.81;;;20.44;54.52
3250;BME280;1637;42.020;23.992;2023-05-02T07:31:49;93323.00;;;20.32;54.73
3250;BME280;1637;42.020;23.992;2023-05-02T07:34:16;93328.84;;;20.89;53.68
3250;BME280;1637;42.020;23.992;2023-05-02T07:36:42;93323.63;;;21.73;50.26
3250;BME280;1637;42.020;23.992;2023-05-02T07:39:09;93314.59;;;21.49;51.88
3250;BME280;1637;42.020;23.992;2023-05-02T07:41:37;93317.19;;;21.07;52.91
3250;BME280;1637;42.020;23.992;2023-05-02T07:44:04;93307.66;;;21.30;53.03
3250;BME280;1637;42.020;23.992;2023-05-02T07:46:31;93318.78;;;22.19;49.02
3250;BME280;1637;42.020;23.992;2023-05-02T07:48:58;93320.97;;;22.06;49.88
3250;BME280;1637;42.020;23.992;2023-05-02T07:51:25;93310.31;;;21.66;50.44
3250;BME280;1637;42.020;23.992;2023-05-02T07:53:52;93301.47;;;20.92;52.11
3250;BME280;1637;42.020;23.992;2023-05-02T07:56:22;93306.13;;;21.56;48.55
3250;BME280;1637;42.020;23.992;2023-05-02T07:58:50;93312.09;;;22.53;46.17
3250;BME280;1637;42.020;23.992;2023-05-02T08:01:17;93322.13;;;21.72;47.66
3250;BME280;1637;42.020;23.992;2023-05-02T08:03:44;93309.44;;;21.60;48.72
3250;BME280;1637;42.020;23.992;2023-05-02T08:06:12;93304.84;;;21.66;49.19
3250;BME280;1637;42.020;23.992;2023-05-02T08:08:39;93300.66;;;21.56;48.72
3250;BME280;1637;42.020;23.992;2023-05-02T08:11:06;93228.19;;;20.12;51.78
3250;BME280;1637;42.020;23.992;2023-05-02T08:13:33;93287.81;;;19.88;53.90
3250;BME280;1637;42.020;23.992;2023-05-02T08:16:01;93296.91;;;18.76;55.20
3250;BME280;1637;42.020;23.992;2023-05-02T08:18:28;93296.47;;;20.91;51.74
3250;BME280;1637;42.020;23.992;2023-05-02T08:20:55;93302.25;;;20.25;53.86
3250;BME280;1637;42.020;23.992;2023-05-02T08:23:22;93287.19;;;18.66;57.97
3250;BME280;1637;42.020;23.992;2023-05-02T08:25:49;93281.47;;;20.01;53.65
3250;BME280;1637;42.020;23.992;2023-05-02T08:28:16;93289.50;;;20.72;50.06
3250;BME280;1637;42.020;23.992;2023-05-02T08:30:44;93285.56;;;21.37;48.78
3250;BME280;1637;42.020;23.992;2023-05-02T08:33:12;93291.06;;;22.21;45.56
3250;BME280;1637;42.020;23.992;2023-05-02T08:35:39;93272.25;;;21.11;50.29
3250;BME280;1637;42.020;23.992;2023-05-02T08:38:06;93284.69;;;21.82;48.01
3250;BME280;1637;42.020;23.992;2023-05-02T08:40:35;93280.72;;;21.32;48.43
3250;BME280;1637;42.020;23.992;2023-05-02T08:43:02;93279.22;;;21.31;50.07
3250;BME280;1637;42.020;23.992;2023-05-02T08:45:32;93287.78;;;21.99;46.63
3250;BME280;1637;42.020;23.992;2023-05-02T08:48:05;93286.75;;;21.45;49.42
3250;BME280;1637;42.020;23.992;2023-05-02T08:50:36;93282.81;;;22.30;48.50
3250;BME280;1637;42.020;23.992;2023-05-02T08:53:04;93279.56;;;22.41;47.58
3250;BME280;1637;42.020;23.992;2023-05-02T08:55:32;93271.13;;;21.54;47.15
3250;BME280;1637;42.020;23.992;2023-05-02T08:57:59;93279.09;;;21.76;46.84
3250;BME280;1637;42.020;23.992;2023-05-02T09:00:28;93276.78;;;21.14;47.91
3250;BME280;1637;42.020;23.992;2023-05-02T09:03:03;93271.94;;;21.27;47.99
3250;BME280;1637;42.020;23.992;2023-05-02T09:05:38;93268.88;;;21.53;47.91
3250;BME280;1637;42.020;23.992;2023-05-02T09:08:06;93276.59;;;21.54;45.99
3250;BME280;1637;42.020;23.992;2023-05-02T09:10:34;93275.78;;;22.05;47.40
3250;BME280;1637;42.020;23.992;2023-05-02T09:13:29;93273.63;;;21.16;48.53
3250;BME280;1637;42.020;23.992;2023-05-02T09:15:57;93264.91;;;22.29;45.14
3250;BME280;1637;42.020;23.992;2023-05-02T09:18:27;93271.19;;;21.36;47.28
3250;BME280;1637;42.020;23.992;2023-05-02T09:20:57;93253.44;;;21.41;47.41
3250;BME280;1637;42.020;23.992;2023-05-02T09:23:32;93247.34;;;21.55;47.55
3250;BME280;1637;42.020;23.992;2023-05-02T09:25:59;93257.00;;;21.65;48.67
3250;BME280;1637;42.020;23.992;2023-05-02T09:28:40;93255.91;;;21.30;49.13
3250;BME280;1637;42.020;23.992;2023-05-02T09:31:07;93253.06;;;20.69;49.24
3250;BME280;1637;42.020;23.992;2023-05-02T09:33:35;93251.22;;;21.03;49.00
3250;BME280;1637;42.020;23.992;2023-05-02T09:36:04;93250.44;;;21.30;48.15
3250;BME280;1637;42.020;23.992;2023-05-02T09:38:32;93237.78;;;20.44;50.67
3250;BME280;1637;42.020;23.992;2023-05-02T09:40:59;93215.81;;;20.20;51.10
3250;BME280;1637;42.020;23.992;2023-05-02T09:43:28;93240.50;;;20.53;50.87
3250;BME280;1637;42.020;23.992;2023-05-02T09:45:56;93241.41;;;20.87;50.09
3250;BME280;1637;42.020;23.992;2023-05-02T09:48:23;93229.91;;;20.92;48.68
3250;BME280;1637;42.020;23.992;2023-05-02T09:50:50;93233.56;;;20.71;48.54
3250;BME280;1637;42.020;23.992;2023-05-02T09:53:18;93235.81;;;20.63;49.27
3250;BME280;1637;42.020;23.992;2023-05-02T09:55:45;93228.72;;;20.75;49.66
3250;BME280;1637;42.020;23.992;2023-05-02T09:58:20;93218.91;;;20.50;50.16
3250;BME280;1637;42.020;23.992;2023-05-02T10:00:49;93230.69;;;20.56;49.11
3250;BME280;1637;42.020;23.992;2023-05-02T10:03:16;93213.50;;;20.01;50.21
3250;BME280;1637;42.020;23.992;2023-05-02T10:05:44;93227.44;;;20.21;50.42
3250;BME280;1637;42.020;23.992;2023-05-02T10:08:12;93220.53;;;20.38;50.42
3250;BME280;1637;42.020;23.992;2023-05-02T10:10:44;93219.94;;;20.71;51.47
3250;BME280;1637;42.020;23.992;2023-05-02T10:13:12;93221.63;;;20.77;50.20
3250;BME280;1637;42.020;23.992;2023-05-02T10:15:43;93218.75;;;20.53;49.32
3250;BME280;1637;42.020;23.992;2023-05-02T10:18:16;93220.84;;;20.49;50.93
3250;BME280;1637;42.020;23.992;2023-05-02T10:20:47;93224.34;;;20.50;51.64
3250;BME280;1637;42.020;23.992;2023-05-02T10:23:20;93223.31;;;19.98;54.91
3250;BME280;1637;42.020;23.992;2023-05-02T10:25:49;93219.53;;;19.96;52.83
3250;BME280;1637;42.020;23.992;2023-05-02T10:28:16;93210.50;;;20.08;54.14
3250;BME280;1637;42.020;23.992;2023-05-02T10:30:44;93213.41;;;20.13;53.17
3250;BME280;1637;42.020;23.992;2023-05-02T10:33:12;93220.91;;;20.00;55.01
3250;BME280;1637;42.020;23.992;2023-05-02T10:35:42;93219.50;;;19.77;54.61
3250;BME280;1637;42.020;23.992;2023-05-02T10:38:10;93215.47;;;19.91;55.10
3250;BME280;1637;42.020;23.992;2023-05-02T10:40:38;93141.13;;;19.76;55.01
3250;BME280;1637;42.020;23.992;2023-05-02T10:43:07;93208.09;;;20.10;55.37
3250;BME280;1637;42.020;23.992;2023-05-02T10:45:39;93214.03;;;20.45;53.74
3250;BME280;1637;42.020;23.992;2023-05-02T10:48:13;93212.03;;;20.09;55.11
3250;BME280;1637;42.020;23.992;2023-05-02T10:50:44;93208.53;;;20.08;54.63
3250;BME280;1637;42.020;23.992;2023-05-02T10:53:30;93214.50;;;20.52;55.01
3250;BME280;1637;42.020;23.992;2023-05-02T10:56:11;93204.16;;;20.20;55.97
3250;BME280;1637;42.020;23.992;2023-05-02T10:58:40;93203.59;;;19.36;55.25
3250;BME280;1637;42.020;23.992;2023-05-02T11:01:35;93212.25;;;19.12;56.65
3250;BME280;1637;42.020;23.992;2023-05-02T11:04:07;93206.59;;;18.98;57.48
3250;BME280;1637;42.020;23.992;2023-05-02T11:06:36;93205.25;;;19.02;57.38
3250;BME280;1637;42.020;23.992;2023-05-02T11:09:31;93220.75;;;19.54;56.82
3250;BME280;1637;42.020;23.992;2023-05-02T11:11:58;93215.63;;;20.06;55.59
3250;BME280;1637;42.020;23.992;2023-05-02T11:14:46;93217.69;;;19.83;55.84
3250;BME280;1637;42.020;23.992;2023-05-02T11:17:15;93196.47;;;19.51;56.70
3250;BME280;1637;42.020;23.992;2023-05-02T11:22:51;93206.13;;;19.52;56.24
3250;BME280;1637;42.020;23.992;2023-05-02T11:25:34;93216.03;;;19.46;55.56
3250;BME280;1637;42.020;23.992;2023-05-02T11:28:04;93210.16;;;19.47;55.52
3250;BME280;1637;42.020;23.992;2023-05-02T11:30:42;93218.31;;;19.47;54.85
3250;BME280;1637;42.020;23.992;2023-05-02T11:33:14;93210.75;;;19.42;54.38
3250;BME280;1637;42.020;23.992;2023-05-02T11:35:48;93213.91;;;19.72;56.47
3250;BME280;1637;42.020;23.992;2023-05-02T11:38:18;93213.38;;;19.55;54.69
3250;BME280;1637;42.020;23.992;2023-05-02T11:40:52;93181.13;;;19.35;53.96
3250;BME280;1637;42.020;23.992;2023-05-02T11:43:21;93211.13;;;19.53;53.01
3250;BME280;1637;42.020;23.992;2023-05-02T11:45:51;93202.69;;;19.30;53.78
3250;BME280;1637;42.020;23.992;2023-05-02T11:48:20;93204.19;;;19.52;52.19
3250;BME280;1637;42.020;23.992;2023-05-02T11:50:50;93209.41;;;19.47;52.59
3250;BME280;1637;42.020;23.992;2023-05-02T11:53:18;93218.53;;;19.62;51.21
3250;BME280;1637;42.020;23.992;2023-05-02T11:55:48;93193.69;;;19.82;51.71
3250;BME280;1637;42.020;23.992;2023-05-02T11:58:17;93200.09;;;19.57;50.81
3250;BME280;1637;42.020;23.992;2023-05-02T12:00:45;93189.00;;;19.82;50.92
3250;BME280;1637;42.020;23.992;2023-05-02T12:03:26;93187.94;;;19.40;51.00
3250;BME280;1637;42.020;23.992;2023-05-02T12:05:53;93188.03;;;19.58;50.89
3250;BME280;1637;42.020;23.992;2023-05-02T12:08:21;93179.91;;;19.76;49.40
3250;BME280;1637;42.020;23.992;2023-05-02T12:10:49;93172.41;;;19.89;50.62
3250;BME280;1637;42.020;23.992;2023-05-02T12:13:20;93193.00;;;19.60;49.50
3250;BME280;1637;42.020;23.992;2023-05-02T12:15:49;93181.78;;;19.08;49.57
3250;BME280;1637;42.020;23.992;2023-05-02T12:18:17;93171.16;;;19.01;49.88
3250;BME280;1637;42.020;23.992;2023-05-02T12:20:46;93169.22;;;19.42;50.13
3250;BME280;1637;42.020;23.992;2023-05-02T12:23:13;93166.16;;;19.62;48.21
3250;BME280;1637;42.020;23.992;2023-05-02T12:25:41;93170.25;;;19.66;50.66
3250;BME280;1637;42.020;23.992;2023-05-02T12:28:08;93153.91;;;19.57;49.09
3250;BME280;1637;42.020;23.992;2023-05-02T12:30:37;93159.44;;;19.44;48.24
3250;BME280;1637;42.020;23.992;2023-05-02T12:33:04;93157.50;;;19.14;48.53
3250;BME280;1637;42.020;23.992;2023-05-02T12:35:33;93164.09;;;19.04;46.67
3250;BME280;1637;42.020;23.992;2023-05-02T12:38:10;93139.06;;;18.78;47.58
3250;BME280;1637;42.020;23.992;2023-05-02T12:40:37;93157.66;;;19.10;47.93
3250;BME280;1637;42.020;23.992;2023-05-02T12:43:05;93145.31;;;19.59;47.06
3250;BME280;1637;42.020;23.992;2023-05-02T12:45:35;93146.28;;;19.43;46.21
3250;BME280;1637;42.020;23.992;2023-05-02T12:48:16;93147.41;;;19.54;46.38
3250;BME280;1637;42.020;23.992;2023-05-02T12:50:43;93137.06;;;19.80;45.53
3250;BME280;1637;42.020;23.992;2023-05-02T12:53:11;93146.53;;;19.76;45.77
3250;BME280;1637;42.020;23.992;2023-05-02T12:55:38;93137.63;;;19.66;44.33
3250;BME280;1637;42.020;23.992;2023-05-02T12:58:06;93154.66;;;19.17;44.64
3250;BME280;1637;42.020;23.992;2023-05-02T13:00:36;93152.34;;;19.47;44.39
3250;BME280;1637;42.020;23.992;2023-05-02T13:03:03;93151.06;;;19.61;45.83
3250;BME280;1637;42.020;23.992;2023-05-02T13:05:30;93143.59;;;19.43;44.54
3250;BME280;1637;42.020;23.992;2023-05-02T13:07:57;93155.03;;;19.38;43.85
3250;BME280;1637;42.020;23.992;2023-05-02T13:10:25;93148.88;;;19.46;44.02
3250;BME280;1637;42.020;23.992;2023-05-02T13:12:52;93145.94;;;19.63;43.91
3250;BME280;1637;42.020;23.992;2023-05-02T13:15:19;93144.91;;;19.87;43.60
3250;BME280;1637;42.020;23.992;2023-05-02T13:17:46;93139.00;;;19.80;44.03
3250;BME280;1637;42.020;23.992;2023-05-02T13:20:13;93144.91;;;19.78;43.06
3250;BME280;1637;42.020;23.992;2023-05-02T13:22:40;93136.00;;;19.96;43.81